Time;durP1;ratioP1;P1;durP2;ratioP2;P2;SDS_P1;SDS_P2;PMS_P1;PMS_P2;Temp;Humidity;BMP_temperature;BMP_pressure;BME280_temperature;BME280_humidity;BME280_pressure;Samples;Min_cycle;Max_cycle;Signal;HPM_P1;HPM_P2
2022/06/16 05:58:37;;;;;;;;;18.00;16.00;;;;;23.50;44.80;101607.94;5111750;27;45448;-69
2022/06/16 06:01:03;;;;;;;;;14.00;14.00;;;;;23.67;44.55;101601.06;5094194;27;45420;-69
2022/06/16 06:03:29;;;;;;;;;17.00;16.33;;;;;23.89;44.22;101602.03;5094259;27;45518;-69
2022/06/16 06:05:55;;;;;;;;;110.00;101.25;;;;;24.12;43.67;101603.75;5094363;27;45519;-70
2022/06/16 06:16:49;;;;;;;;;42.00;35.67;;;;;24.92;42.37;101605.75;5094370;27;45519;-73
2022/06/16 06:19:25;;;;;;;;;37.33;33.00;;;;;25.17;41.91;101615.34;5094855;27;45443;-72
2022/06/16 06:22:03;;;;;;;;;27.33;24.67;;;;;25.37;41.82;101619.84;5093966;27;45559;-71
2022/06/16 06:24:42;;;;;;;;;38.33;34.33;;;;;25.44;41.04;101623.09;5093970;27;45525;-76
2022/06/16 06:27:31;;;;;;;;;25.00;20.67;;;;;25.57;40.67;101635.00;5093536;27;45511;-73
2022/06/16 06:29:58;;;;;;;;;25.00;24.00;;;;;25.63;40.46;101637.44;5092952;27;45523;-74
2022/06/16 06:32:24;;;;;;;;;28.00;28.00;;;;;25.75;40.55;101641.34;5093429;27;45470;-73
2022/06/16 06:34:50;;;;;;;;;20.00;20.00;;;;;25.83;40.43;101640.97;5081924;27;45441;-73
2022/06/16 06:37:18;;;;;;;;;29.67;26.00;;;;;25.93;39.64;101650.34;5090804;27;45549;-71
2022/06/16 06:39:53;;;;;;;;;29.00;28.00;;;;;25.94;39.82;101638.69;5093071;27;45478;-75
2022/06/16 06:42:19;;;;;;;;;29.33;27.33;;;;;26.06;39.32;101642.59;5088178;27;45321;-73
2022/06/16 06:44:45;;;;;;;;;23.00;20.33;;;;;26.17;38.72;101643.81;5086019;27;45349;-73
2022/06/16 06:47:24;;;;;;;;;29.33;27.33;;;;;26.28;38.71;101656.69;5093281;27;45546;-75
2022/06/16 06:49:50;;;;;;;;;28.00;25.67;;;;;26.33;38.07;101656.47;5092619;27;45500;-71
2022/06/16 06:52:17;;;;;;;;;23.50;20.00;;;;;26.32;38.15;101655.59;5092993;27;45342;-73
2022/06/16 06:54:45;;;;;;;;;19.33;17.33;;;;;26.43;38.30;101658.63;5093408;27;45470;-74
2022/06/16 06:57:13;;;;;;;;;20.67;20.00;;;;;26.51;37.73;101660.91;5093354;27;45353;-70
2022/06/16 06:59:39;;;;;;;;;22.00;20.00;;;;;26.55;37.79;101654.50;5092730;27;46307;-73
2022/06/16 07:02:05;;;;;;;;;26.67;21.33;;;;;26.66;37.88;101667.38;5086409;27;45431;-70
2022/06/16 07:04:31;;;;;;;;;23.33;23.00;;;;;26.71;37.26;101657.25;5072239;27;45259;-70
2022/06/16 07:06:56;;;;;;;;;20.00;17.00;;;;;26.80;37.18;101663.97;5071841;27;45476;-74
2022/06/16 07:09:36;;;;;;;;;17.67;16.33;;;;;26.86;36.51;101669.00;5075000;27;45562;-72
2022/06/16 07:12:02;;;;;;;;;17.33;16.33;;;;;26.78;36.23;101653.28;5058640;28;45369;-74
2022/06/16 07:14:30;;;;;;;;;16.00;14.00;;;;;26.97;36.36;101684.59;5058599;28;45650;-72
2022/06/16 07:16:56;;;;;;;;;17.00;15.67;;;;;26.89;36.38;101654.56;5060509;28;45838;-72
2022/06/16 07:19:22;;;;;;;;;19.33;17.33;;;;;26.94;35.91;101656.06;5058320;28;46105;-71
2022/06/16 07:21:48;;;;;;;;;18.00;16.00;;;;;26.93;36.01;101656.13;5060596;28;45334;-70
2022/06/16 07:24:14;;;;;;;;;17.67;14.67;;;;;27.21;35.62;101687.84;5058592;28;45436;-74
2022/06/16 07:26:39;;;;;;;;;15.67;15.33;;;;;27.17;35.66;101681.75;5058635;28;45433;-71
2022/06/16 07:29:06;;;;;;;;;17.00;16.33;;;;;27.26;35.42;101696.53;5057996;28;45631;-74
2022/06/16 07:31:31;;;;;;;;;18.50;15.25;;;;;27.26;35.22;101694.75;5073497;27;45464;-76
2022/06/16 07:34:03;;;;;;;;;20.00;17.00;;;;;27.31;34.90;101697.16;5058538;28;45270;-73
2022/06/16 07:36:29;;;;;;;;;18.00;17.00;;;;;27.16;34.74;101679.13;5058595;28;45433;-73
2022/06/16 07:38:54;;;;;;;;;16.33;16.33;;;;;27.25;34.79;101705.56;5063302;28;46060;-73
2022/06/16 07:41:33;;;;;;;;;13.00;13.00;;;;;26.97;35.34;101649.66;5058549;28;45599;-75
2022/06/16 07:44:00;;;;;;;;;15.00;15.00;;;;;27.31;34.81;101702.53;5058147;28;45454;-72
2022/06/16 07:46:25;;;;;;;;;18.67;16.67;;;;;27.35;35.39;101698.75;5071141;27;45706;-71
2022/06/16 07:48:51;;;;;;;;;15.00;15.00;;;;;27.09;35.18;101667.81;5058181;28;45400;-69
2022/06/16 07:51:18;;;;;;;;;20.33;18.33;;;;;27.25;35.54;101687.63;5058567;28;45492;-73
2022/06/16 07:53:44;;;;;;;;;15.67;13.00;;;;;27.37;34.69;101696.84;5076376;27;45688;-75
2022/06/16 07:56:10;;;;;;;;;17.00;14.67;;;;;27.21;34.57;101669.88;5058171;28;45475;-71
2022/06/16 07:58:43;;;;;;;;;20.33;18.00;;;;;27.29;33.96;101677.56;5057096;27;46115;-75
2022/06/16 08:01:10;;;;;;;;;19.00;18.00;;;;;27.25;33.39;101655.34;5065997;28;45429;-73
2022/06/16 08:03:36;;;;;;;;;17.00;17.00;;;;;27.59;33.11;101687.63;5069385;28;45374;-71
2022/06/16 08:06:05;;;;;;;;;17.67;17.33;;;;;27.43;33.34;101664.25;5067219;28;45777;-70
2022/06/16 08:08:31;;;;;;;;;13.67;12.67;;;;;27.68;32.50;101700.56;5063591;28;46097;-74
2022/06/16 08:10:57;;;;;;;;;12.75;12.50;;;;;27.72;32.89;101707.53;5076159;27;45834;-73
2022/06/16 08:13:23;;;;;;;;;10.75;10.25;;;;;27.77;32.23;101702.75;5074527;27;45549;-71
2022/06/16 08:15:50;;;;;;;;;12.00;12.00;;;;;27.51;31.95;101649.50;5064208;28;46656;-76
2022/06/16 08:18:20;;;;;;;;;10.50;10.50;;;;;27.78;31.41;101693.72;5067003;28;45352;-74
2022/06/16 08:20:47;;;;;;;;;13.50;12.00;;;;;27.87;31.19;101701.31;5074059;27;45369;-68
2022/06/16 08:23:13;;;;;;;;;14.75;13.00;;;;;27.88;30.67;101705.78;5069760;27;45325;-74
2022/06/16 08:25:42;;;;;;;;;11.25;11.25;;;;;27.94;31.10;101711.75;5079386;27;45381;-75
2022/06/16 08:28:10;;;;;;;;;18.00;16.00;;;;;27.92;30.62;101701.06;5077201;27;45275;-76
2022/06/16 08:30:37;;;;;;;;;12.75;12.00;;;;;27.86;30.69;101696.91;5074933;28;45607;-74
2022/06/16 08:33:03;;;;;;;;;12.75;12.25;;;;;27.88;29.45;101691.41;5076645;28;45656;-74
2022/06/16 08:35:30;;;;;;;;;14.75;12.00;;;;;27.90;28.93;101692.19;5076245;28;45821;-76
2022/06/16 08:37:55;;;;;;;;;12.75;12.75;;;;;27.94;28.99;101696.47;5073668;28;46463;-74
2022/06/16 08:40:21;;;;;;;;;9.75;9.00;;;;;28.01;29.03;101703.25;5074858;28;45373;-75
2022/06/16 08:42:54;;;;;;;;;6.25;6.25;;;;;28.05;28.42;101701.28;5074088;27;45495;-70
2022/06/16 08:45:26;;;;;;;;;7.25;7.25;;;;;28.07;28.41;101700.22;5070641;28;45375;-75
2022/06/16 08:48:39;;;;;;;;;10.25;10.25;;;;;28.06;27.95;101695.78;5075119;28;45513;-72
2022/06/16 08:51:29;;;;;;;;;9.75;9.25;;;;;28.07;27.80;101699.34;5051387;28;45561;-74
2022/06/16 08:54:24;;;;;;;;;10.75;9.75;;;;;28.04;28.08;101699.50;5073366;28;45610;-69
2022/06/16 08:57:04;;;;;;;;;10.00;9.75;;;;;28.15;28.04;101713.25;5072663;28;45437;-73
2022/06/16 08:59:38;;;;;;;;;10.00;10.00;;;;;28.22;28.41;101711.94;5076457;27;45524;-72
2022/06/16 09:02:15;;;;;;;;;10.00;9.00;;;;;28.22;27.90;101697.63;5074579;28;45536;-76
2022/06/16 09:04:47;;;;;;;;;8.00;8.00;;;;;28.33;28.02;101708.63;5072520;28;45560;-76
2022/06/16 09:07:27;;;;;;;;;6.75;4.50;;;;;28.39;27.80;101702.03;5076350;28;45376;-74
2022/06/16 09:10:25;;;;;;;;;13.50;13.00;;;;;28.37;27.69;101691.34;5106109;27;47227;-76
2022/06/16 09:13:03;;;;;;;;;10.00;10.00;;;;;28.43;27.87;101706.28;5073538;28;45433;-73
2022/06/16 09:15:35;;;;;;;;;11.00;11.00;;;;;28.45;28.35;101704.34;5068967;27;45571;-76
2022/06/16 09:18:10;;;;;;;;;11.00;8.75;;;;;28.41;27.72;101689.34;5067448;28;45390;-76
2022/06/16 09:20:35;;;;;;;;;12.75;10.00;;;;;28.47;28.10;101703.34;5084513;27;46848;-75
2022/06/16 09:23:23;;;;;;;;;12.00;11.00;;;;;28.41;27.79;101706.38;5067539;28;45378;-70
2022/06/16 09:26:15;;;;;;;;;12.75;11.00;;;;;28.31;28.88;101692.56;5070056;27;45481;-73
2022/06/16 09:28:59;;;;;;;;;9.00;9.00;;;;;28.35;28.01;101690.53;5066006;28;45511;-74
2022/06/16 09:31:36;;;;;;;;;8.50;8.50;;;;;28.47;28.67;101699.78;5066453;28;46167;-71
2022/06/16 09:34:15;;;;;;;;;9.75;8.50;;;;;28.42;28.42;101699.16;5065033;28;45445;-71
2022/06/16 09:36:52;;;;;;;;;12.50;11.00;;;;;28.42;27.73;101705.41;5054459;27;45385;-71
2022/06/16 09:39:30;;;;;;;;;10.00;10.00;;;;;28.40;27.91;101709.16;5065384;27;45472;-74
2022/06/16 09:42:37;;;;;;;;;11.25;9.50;;;;;28.41;27.98;101710.91;5059565;28;45291;-74
2022/06/16 09:45:54;;;;;;;;;10.00;9.25;;;;;28.43;28.52;101704.47;5057263;28;45439;-77
2022/06/16 09:48:38;;;;;;;;;9.75;9.00;;;;;28.45;27.50;101691.78;5040679;27;45398;-76
2022/06/16 09:51:17;;;;;;;;;9.75;9.50;;;;;28.42;27.73;101686.53;5069906;28;45297;-73
2022/06/16 09:53:55;;;;;;;;;12.50;9.25;;;;;28.30;26.67;101687.25;5056062;28;45564;-75
2022/06/16 09:56:29;;;;;;;;;9.75;9.25;;;;;28.21;27.31;101680.56;5056029;28;45517;-76
2022/06/16 09:59:00;;;;;;;;;11.00;11.00;;;;;28.17;27.61;101678.16;5056247;27;45466;-74
2022/06/16 10:01:31;;;;;;;;;9.25;9.25;;;;;28.09;27.38;101674.06;5065494;28;45531;-76
2022/06/16 10:04:02;;;;;;;;;13.00;12.00;;;;;28.15;27.31;101685.47;5059641;27;45272;-74
2022/06/16 10:06:53;;;;;;;;;10.25;10.25;;;;;28.06;26.68;101689.53;5056843;28;45330;-72
2022/06/16 10:09:28;;;;;;;;;8.50;8.50;;;;;28.10;28.77;101688.41;5057426;28;45433;-75
2022/06/16 10:12:13;;;;;;;;;10.75;10.75;;;;;28.18;27.48;101688.81;5063175;28;45481;-72
2022/06/16 10:14:43;;;;;;;;;11.25;10.25;;;;;28.11;28.50;101669.44;5071770;27;45555;-74
2022/06/16 10:17:11;;;;;;;;;9.00;9.00;;;;;28.33;28.04;101685.28;5071700;27;45393;-74
2022/06/16 10:19:40;;;;;;;;;9.00;9.00;;;;;27.85;27.26;101586.59;5069228;27;45408;-76
2022/06/16 10:22:08;;;;;;;;;10.00;10.00;;;;;28.36;27.20;101670.75;5077161;28;45499;-74
2022/06/16 10:24:44;;;;;;;;;11.75;10.00;;;;;28.50;27.35;101691.53;5075977;28;45574;-75
2022/06/16 10:27:13;;;;;;;;;13.00;12.00;;;;;28.50;26.37;101696.94;5076263;27;45437;-76
2022/06/16 10:30:00;;;;;;;;;12.00;12.00;;;;;28.46;26.41;101684.59;5076652;27;45389;-75
2022/06/16 10:32:34;;;;;;;;;12.50;11.00;;;;;28.47;26.93;101686.31;5077041;28;45363;-74
2022/06/16 10:35:00;;;;;;;;;10.75;9.75;;;;;28.52;26.90;101685.09;5076338;28;45565;-73
2022/06/16 10:37:30;;;;;;;;;11.50;10.50;;;;;28.59;26.84;101693.66;5076938;27;45479;-74
2022/06/16 10:40:06;;;;;;;;;10.75;10.75;;;;;28.61;26.69;101689.06;5077266;27;45389;-77
2022/06/16 10:42:44;;;;;;;;;14.00;12.00;;;;;28.61;26.32;101677.41;5065590;28;45373;-76
2022/06/16 10:45:29;;;;;;;;;10.67;10.67;;;;;28.45;26.50;101653.16;5078521;27;47833;-75
2022/06/16 10:48:03;;;;;;;;;11.00;10.00;;;;;28.66;26.31;101680.69;5081194;27;45553;-77
2022/06/16 10:50:34;;;;;;;;;11.75;11.00;;;;;28.66;25.63;101675.31;5071462;28;45374;-78
2022/06/16 10:53:17;;;;;;;;;9.00;9.00;;;;;28.01;25.64;101578.53;5066656;28;45415;-76
2022/06/16 10:55:45;;;;;;;;;12.00;10.25;;;;;28.43;25.60;101657.78;5059549;27;45422;-77
2022/06/16 10:58:33;;;;;;;;;10.50;10.50;;;;;28.15;25.99;101594.75;5061244;28;45185;-75
2022/06/16 11:01:07;;;;;;;;;11.50;11.50;;;;;28.26;26.09;101592.31;5063291;28;45451;-77
2022/06/16 11:03:36;;;;;;;;;10.25;10.25;;;;;28.81;26.08;101678.91;5076883;27;45405;-74
2022/06/16 11:06:04;;;;;;;;;8.75;8.75;;;;;28.74;26.42;101646.09;5058983;28;46086;-74
2022/06/16 11:08:58;;;;;;;;;11.00;10.00;;;;;28.82;26.69;101637.53;5056783;28;45346;-77
2022/06/16 11:11:42;;;;;;;;;5.75;5.75;;;;;28.87;25.45;101652.44;5074619;28;45398;-74
2022/06/16 11:14:21;;;;;;;;;9.00;9.00;;;;;29.02;25.01;101663.25;5078057;27;45446;-76
2022/06/16 11:16:53;;;;;;;;;9.00;9.00;;;;;28.96;24.41;101656.44;5079374;27;45379;-75
2022/06/16 11:19:28;;;;;;;;;9.75;9.00;;;;;29.02;24.28;101669.56;5080268;27;45404;-75
2022/06/16 11:21:54;;;;;;;;;13.75;11.00;;;;;28.99;25.06;101677.81;5078872;27;45433;-73
2022/06/16 11:24:26;;;;;;;;;10.00;10.00;;;;;29.07;25.09;101675.56;5070628;28;45500;-76
2022/06/16 11:27:02;;;;;;;;;11.25;9.00;;;;;29.05;24.97;101665.81;5076077;28;46991;-77
2022/06/16 11:29:32;;;;;;;;;11.00;9.25;;;;;28.80;24.70;101620.56;5079706;28;45467;-76
2022/06/16 11:32:03;;;;;;;;;8.25;8.25;;;;;29.27;25.77;101692.34;5071815;28;45472;-76
2022/06/16 11:34:29;;;;;;;;;8.50;8.00;;;;;29.32;25.65;101687.53;5073861;27;45532;-76
2022/06/16 11:37:09;;;;;;;;;8.75;8.75;;;;;29.40;25.74;101677.16;5074506;28;45583;-73
2022/06/16 11:39:55;;;;;;;;;9.75;9.75;;;;;29.22;25.46;101622.50;5073046;27;45495;-78
2022/06/16 11:42:42;;;;;;;;;12.25;12.25;;;;;29.07;24.36;101589.25;5075781;27;45278;-78
2022/06/16 11:45:31;;;;;;;;;12.00;11.00;;;;;29.57;24.98;101668.84;5076536;28;46075;-75
2022/06/16 11:48:15;;;;;;;;;8.75;8.50;;;;;29.67;24.39;101669.16;5049207;28;47227;-75
2022/06/16 11:51:08;;;;;;;;;9.50;9.50;;;;;29.78;24.70;101666.63;5058109;28;45457;-75
2022/06/16 11:53:42;;;;;;;;;12.00;10.00;;;;;29.83;25.09;101669.03;5058599;28;45459;-77
2022/06/16 11:56:33;;;;;;;;;9.75;9.75;;;;;29.87;25.19;101664.28;5059439;28;45479;-75
2022/06/16 11:59:18;;;;;;;;;9.50;9.50;;;;;29.91;25.29;101671.25;5058788;28;46597;-74
2022/06/16 12:01:47;;;;;;;;;10.00;9.50;;;;;29.96;25.11;101661.84;5058716;28;45402;-75
2022/06/16 12:04:30;;;;;;;;;10.00;10.00;;;;;29.87;25.01;101640.00;5057752;28;45311;-74
2022/06/16 12:06:59;;;;;;;;;11.00;11.00;;;;;30.11;24.95;101661.81;5058390;28;45436;-73
2022/06/16 12:09:27;;;;;;;;;12.00;11.00;;;;;30.15;25.18;101658.81;5057857;27;45454;-74
2022/06/16 12:12:21;;;;;;;;;11.00;11.00;;;;;30.23;25.37;101670.00;5078565;27;45448;-70
2022/06/16 12:15:23;;;;;;;;;10.00;10.00;;;;;30.33;25.18;101661.31;5078736;27;45324;-73
2022/06/16 12:18:07;;;;;;;;;11.25;10.75;;;;;30.38;24.02;101657.31;5078469;27;45391;-74
2022/06/16 12:20:48;;;;;;;;;13.75;13.00;;;;;30.39;24.86;101659.03;5065814;28;45411;-72
2022/06/16 12:23:41;;;;;;;;;10.00;9.25;;;;;30.35;24.76;101646.72;5068413;27;45877;-73
2022/06/16 12:26:23;;;;;;;;;10.25;9.50;;;;;30.50;24.61;101657.47;5066307;28;45562;-75
2022/06/16 12:28:49;;;;;;;;;9.25;9.25;;;;;30.57;24.51;101651.53;5062890;28;45751;-76
2022/06/16 12:31:30;;;;;;;;;10.75;9.50;;;;;30.65;24.90;101653.72;5083849;27;47756;-73
2022/06/16 12:34:10;;;;;;;;;9.00;9.00;;;;;30.72;24.54;101656.88;5070907;28;45341;-75
2022/06/16 12:36:43;;;;;;;;;9.75;9.00;;;;;30.77;24.39;101652.88;5067265;27;45895;-73
2022/06/16 12:39:16;;;;;;;;;12.00;10.50;;;;;30.82;24.46;101639.91;5068245;28;45571;-73
2022/06/16 12:41:49;;;;;;;;;10.25;9.75;;;;;30.80;24.50;101616.63;5060063;27;46808;-74
2022/06/16 12:44:44;;;;;;;;;9.00;9.00;;;;;30.92;24.50;101623.06;5067640;27;45428;-72
2022/06/16 12:47:27;;;;;;;;;11.25;11.00;;;;;31.00;24.57;101629.66;5061577;28;45281;-70
2022/06/16 12:50:03;;;;;;;;;10.75;10.50;;;;;31.06;23.28;101614.84;5070717;27;45290;-72
2022/06/16 12:52:44;;;;;;;;;10.25;8.50;;;;;31.04;23.25;101614.09;5066033;27;45358;-74
2022/06/16 12:55:18;;;;;;;;;9.00;9.00;;;;;30.88;23.42;101597.22;5066720;28;45393;-72
2022/06/16 12:57:53;;;;;;;;;11.00;8.50;;;;;31.00;23.33;101607.16;5066900;28;45389;-73
2022/06/16 13:00:23;;;;;;;;;2.25;2.25;;;;;31.02;23.37;101625.03;5067918;28;45939;-75
2022/06/16 13:02:55;;;;;;;;;11.00;11.00;;;;;31.01;22.49;101611.59;5062505;28;46503;-74
2022/06/16 13:05:21;;;;;;;;;9.50;9.50;;;;;30.90;23.14;101619.63;5084703;27;45552;-73
2022/06/16 13:07:51;;;;;;;;;12.00;11.00;;;;;30.92;23.72;101609.53;5064242;28;45877;-73
2022/06/16 13:10:16;;;;;;;;;10.00;9.75;;;;;30.87;23.54;101590.06;5074688;28;46788;-74
2022/06/16 13:12:49;;;;;;;;;9.00;9.00;;;;;31.08;22.55;101612.88;5077374;28;45616;-74
2022/06/16 13:15:38;;;;;;;;;9.75;9.00;;;;;31.18;23.05;101613.09;5076474;28;45479;-73
2022/06/16 13:18:20;;;;;;;;;9.00;9.00;;;;;31.22;22.62;101601.94;5076915;27;45462;-75
2022/06/16 13:20:53;;;;;;;;;10.50;8.50;;;;;31.28;22.97;101603.38;5075791;28;45282;-75
2022/06/16 13:23:30;;;;;;;;;9.00;9.00;;;;;31.36;22.52;101597.41;5075895;28;45908;-74
2022/06/16 13:26:07;;;;;;;;;9.50;9.00;;;;;31.41;23.19;101592.53;5075770;28;45433;-72
2022/06/16 13:29:02;;;;;;;;;7.75;7.00;;;;;31.53;23.28;101588.94;5074060;27;45441;-74
2022/06/16 13:32:00;;;;;;;;;6.50;6.50;;;;;31.57;22.07;101592.28;5068558;28;45542;-74
2022/06/16 13:34:50;;;;;;;;;10.00;10.00;;;;;31.58;21.82;101588.59;5075279;27;45387;-73
2022/06/16 13:37:38;;;;;;;;;9.50;9.50;;;;;31.38;22.18;101560.25;5074091;27;45513;-74
2022/06/16 13:40:10;;;;;;;;;8.00;8.00;;;;;31.54;22.37;101601.50;5073643;28;45501;-75
2022/06/16 13:42:43;;;;;;;;;9.75;9.00;;;;;31.55;22.97;101592.41;5075037;27;45386;-72
2022/06/16 13:45:12;;;;;;;;;12.50;9.00;;;;;31.60;21.67;101589.34;5073723;28;46222;-74
2022/06/16 13:47:47;;;;;;;;;8.20;6.60;;;;;31.63;22.76;101595.44;5075368;27;45476;-73
2022/06/16 13:50:20;;;;;;;;;7.00;7.00;;;;;31.70;22.85;101587.69;5072007;27;45471;-72
2022/06/16 13:53:07;;;;;;;;;8.00;7.00;;;;;31.71;23.10;101580.47;5067209;28;45457;-73
2022/06/16 13:55:43;;;;;;;;;7.25;6.50;;;;;31.86;23.25;101582.88;5067620;28;45401;-72
2022/06/16 13:58:36;;;;;;;;;5.40;4.20;;;;;31.92;23.12;101578.84;5068207;28;45444;-76
2022/06/16 14:01:16;;;;;;;;;10.75;9.75;;;;;32.00;22.38;101583.72;5059875;28;45481;-72
2022/06/16 14:04:03;;;;;;;;;12.00;10.75;;;;;31.98;22.03;101567.56;5068386;28;45554;-74
2022/06/16 14:06:36;;;;;;;;;8.00;8.00;;;;;31.94;21.39;101567.88;5064843;27;45881;-71
2022/06/16 14:09:08;;;;;;;;;12.40;10.00;;;;;32.04;22.09;101580.66;5068679;27;45426;-72
2022/06/16 14:12:05;;;;;;;;;8.50;7.50;;;;;32.03;21.95;101572.63;5074742;28;45398;-75
2022/06/16 14:14:56;;;;;;;;;8.25;8.25;;;;;32.08;22.21;101568.63;5077966;27;45574;-73
2022/06/16 14:17:33;;;;;;;;;9.75;8.25;;;;;32.14;22.21;101569.13;5076943;28;45528;-73
2022/06/16 14:20:13;;;;;;;;;9.40;7.40;;;;;31.99;21.55;101557.63;5080532;27;45428;-72
2022/06/16 14:22:47;;;;;;;;;8.00;7.00;;;;;31.98;21.63;101567.56;5083659;28;45381;-78
2022/06/16 14:25:44;;;;;;;;;11.00;9.75;;;;;31.99;21.59;101577.44;5083275;28;45390;-79
2022/06/16 14:28:20;;;;;;;;;7.25;6.00;;;;;31.98;21.29;101586.53;5080612;28;45432;-75
2022/06/16 14:30:50;;;;;;;;;7.00;7.00;;;;;32.00;21.90;101581.00;5080858;28;45491;-71
2022/06/16 14:33:38;;;;;;;;;6.60;6.60;;;;;31.89;21.82;101557.38;5082248;27;45244;-77
2022/06/16 14:36:25;;;;;;;;;7.50;7.50;;;;;32.17;21.58;101588.72;5080893;27;45724;-73
2022/06/16 14:39:06;;;;;;;;;5.50;5.50;;;;;32.29;21.24;101593.19;5080421;27;45478;-74
2022/06/16 14:41:57;;;;;;;;;9.00;6.60;;;;;32.39;21.28;101601.50;5080094;28;45454;-73
2022/06/16 14:44:39;;;;;;;;;7.50;7.25;;;;;32.48;20.66;101595.34;5078914;27;45517;-72
2022/06/16 14:47:18;;;;;;;;;8.00;6.50;;;;;32.45;20.58;101600.16;5079751;28;45614;-72
2022/06/16 14:50:01;;;;;;;;;6.00;6.00;;;;;32.47;20.64;101607.19;5079735;27;46343;-72
2022/06/16 14:52:48;;;;;;;;;6.60;6.60;;;;;32.57;20.56;101601.09;5079466;27;45450;-73
2022/06/16 14:55:18;;;;;;;;;9.00;7.60;;;;;32.53;20.30;101573.34;5080140;28;45337;-73
2022/06/16 14:57:47;;;;;;;;;7.00;7.00;;;;;32.69;20.79;101594.72;5065547;27;45576;-71
2022/06/16 15:00:27;;;;;;;;;7.75;7.75;;;;;32.78;20.33;101596.72;5079699;27;45439;-71
2022/06/16 15:03:09;;;;;;;;;3.60;3.60;;;;;32.80;20.19;101605.59;5078015;27;45781;-70
2022/06/16 15:05:36;;;;;;;;;7.00;7.00;;;;;32.70;20.65;101583.75;5079265;27;45369;-70
2022/06/16 15:08:02;;;;;;;;;8.25;7.25;;;;;32.71;20.31;101579.19;5074625;27;45476;-73
2022/06/16 15:10:31;;;;;;;;;7.00;7.00;;;;;32.80;20.03;101599.31;5067882;28;45500;-72
2022/06/16 15:13:07;;;;;;;;;7.40;6.00;;;;;32.72;20.29;101581.78;5065117;28;46740;-71
2022/06/16 15:15:34;;;;;;;;;6.60;6.60;;;;;32.92;20.27;101596.47;5095089;27;45463;-70
2022/06/16 15:18:13;;;;;;;;;4.50;4.50;;;;;32.97;20.08;101589.84;5079439;27;45320;-71
2022/06/16 15:20:53;;;;;;;;;5.60;5.60;;;;;33.05;19.96;101590.97;5079181;27;45475;-70
2022/06/16 15:23:21;;;;;;;;;6.00;6.00;;;;;33.00;20.12;101570.59;5079016;27;45370;-75
2022/06/16 15:25:54;;;;;;;;;6.00;6.00;;;;;33.14;19.98;101584.81;5078163;27;45304;-71
2022/06/16 15:28:24;;;;;;;;;7.75;6.25;;;;;33.23;20.01;101588.63;5079193;27;45475;-72
2022/06/16 15:31:04;;;;;;;;;5.20;5.20;;;;;33.25;19.90;101588.53;5078530;28;45506;-72
2022/06/16 15:36:22;;;;;;;;;7.40;7.00;;;;;33.24;19.77;101592.22;5078838;27;45447;-72
2022/06/16 15:38:52;;;;;;;;;7.75;7.75;;;;;33.16;19.92;101590.13;5061291;28;45830;-72
2022/06/16 15:41:50;;;;;;;;;8.50;8.25;;;;;33.05;18.91;101590.09;5078756;27;46071;-72
2022/06/16 15:44:24;;;;;;;;;22.50;20.75;;;;;32.95;19.66;101589.94;5086368;27;45404;-71
2022/06/16 15:46:58;;;;;;;;;15.25;12.50;;;;;32.76;19.72;101568.84;5078845;27;45586;-71
2022/06/16 15:49:39;;;;;;;;;9.00;8.00;;;;;32.81;19.92;101588.31;5078289;28;45479;-72
2022/06/16 15:52:14;;;;;;;;;7.00;7.00;;;;;32.53;19.65;101567.91;5077129;27;45635;-72
2022/06/16 15:54:40;;;;;;;;;6.60;6.40;;;;;32.49;20.28;101578.13;5078746;28;45445;-70
2022/06/16 15:57:07;;;;;;;;;6.00;6.00;;;;;32.30;19.81;101572.41;5077109;27;45484;-73
2022/06/16 15:59:53;;;;;;;;;8.00;8.00;;;;;32.33;20.00;101574.88;5078749;27;45428;-74
2022/06/16 16:02:21;;;;;;;;;7.00;7.00;;;;;32.25;20.13;101559.19;5078139;27;45618;-71
2022/06/16 16:04:47;;;;;;;;;5.20;5.20;;;;;32.43;20.29;101586.72;5079013;28;45382;-71
2022/06/16 16:07:13;;;;;;;;;7.60;6.00;;;;;32.49;20.64;101580.84;5079236;28;45450;-74
2022/06/16 16:09:40;;;;;;;;;8.00;8.00;;;;;32.40;19.98;101575.25;5064936;28;45322;-71
2022/06/16 16:12:26;;;;;;;;;7.00;6.75;;;;;32.38;20.57;101578.06;5073859;27;46603;-70
2022/06/16 16:15:03;;;;;;;;;6.00;6.00;;;;;32.44;20.52;101580.34;5073867;27;45494;-72
2022/06/16 16:17:44;;;;;;;;;5.80;5.80;;;;;32.36;20.43;101569.19;5078401;28;45278;-71
2022/06/16 16:20:53;;;;;;;;;7.00;6.25;;;;;32.32;20.21;101559.59;5078489;28;45329;-73
2022/06/16 16:23:26;;;;;;;;;6.75;6.75;;;;;32.27;20.96;101551.81;5077058;27;46787;-72
2022/06/16 16:25:57;;;;;;;;;6.60;6.60;;;;;32.37;21.12;101575.47;5078400;27;45421;-71
2022/06/16 16:28:32;;;;;;;;;7.75;7.50;;;;;32.10;20.66;101558.50;5076777;28;45534;-72
2022/06/16 16:31:12;;;;;;;;;7.50;7.00;;;;;31.83;21.06;101515.38;5078537;28;45461;-73
2022/06/16 16:33:39;;;;;;;;;7.00;6.40;;;;;32.13;21.17;101567.38;5076396;27;45511;-72
2022/06/16 16:36:16;;;;;;;;;8.00;7.00;;;;;31.99;21.20;101544.94;5078338;27;45641;-73
2022/06/16 16:38:46;;;;;;;;;8.40;8.00;;;;;32.11;21.37;101573.78;5078022;27;45382;-73
2022/06/16 16:43:59;;;;;;;;;5.60;5.60;;;;;31.89;21.66;101533.91;5077444;28;45694;-72
2022/06/16 16:46:29;;;;;;;;;9.40;7.20;;;;;32.10;21.72;101577.47;5077719;27;45439;-74
2022/06/16 16:48:57;;;;;;;;;9.25;8.00;;;;;32.00;21.31;101571.03;5078116;27;45361;-72
2022/06/16 16:51:24;;;;;;;;;8.25;8.25;;;;;31.87;21.31;101578.34;5078216;28;45332;-71
2022/06/16 16:53:55;;;;;;;;;7.50;7.50;;;;;31.76;20.53;101572.84;5077937;27;46292;-74
2022/06/16 16:56:24;;;;;;;;;5.80;5.80;;;;;31.73;21.53;101563.13;5078254;27;45476;-69
2022/06/16 16:58:59;;;;;;;;;12.00;9.25;;;;;31.63;21.61;101546.69;5078214;27;45280;-74
2022/06/16 17:01:29;;;;;;;;;10.75;9.75;;;;;31.80;21.32;101568.94;5078252;27;45501;-75
2022/06/16 17:03:56;;;;;;;;;7.25;7.25;;;;;31.79;21.48;101572.59;5076460;27;48063;-74
2022/06/16 17:06:22;;;;;;;;;8.80;7.00;;;;;31.79;21.68;101578.03;5078225;27;45365;-74
2022/06/16 17:08:48;;;;;;;;;7.50;7.00;;;;;31.57;21.55;101555.25;5069545;27;45493;-76
2022/06/16 17:14:03;;;;;;;;;10.00;8.00;;;;;31.46;21.98;101582.25;5080859;27;45229;-75
2022/06/16 17:16:29;;;;;;;;;6.00;6.00;;;;;31.40;22.24;101580.84;5066290;28;45401;-74
2022/06/16 17:18:56;;;;;;;;;7.25;7.25;;;;;31.19;22.23;101537.22;5079049;27;45483;-77
2022/06/16 17:21:22;;;;;;;;;6.00;5.25;;;;;31.22;21.74;101545.13;5078648;27;45525;-74
2022/06/16 17:23:48;;;;;;;;;6.75;6.75;;;;;30.99;21.99;101506.22;5094096;27;45569;-74
2022/06/16 17:26:16;;;;;;;;;7.75;7.75;;;;;31.21;21.79;101545.25;5077486;27;45566;-74
2022/06/16 17:28:42;;;;;;;;;8.00;8.00;;;;;30.91;21.96;101505.03;5077720;27;45376;-74
2022/06/16 17:31:08;;;;;;;;;7.75;6.25;;;;;31.38;21.48;101585.47;5078008;27;45449;-75
2022/06/16 17:33:38;;;;;;;;;8.75;7.50;;;;;31.06;22.57;101531.84;5078128;28;45721;-76
2022/06/16 17:36:04;;;;;;;;;9.75;9.75;;;;;31.35;22.55;101584.84;5077699;27;45809;-74
2022/06/16 17:38:37;;;;;;;;;9.25;9.00;;;;;31.28;22.07;101584.44;5076235;27;46067;-75
2022/06/16 17:41:03;;;;;;;;;11.00;10.00;;;;;30.89;22.59;101534.03;5077780;27;45517;-75
2022/06/16 17:43:29;;;;;;;;;10.75;10.75;;;;;31.23;21.90;101592.00;5076853;28;46434;-75
2022/06/16 17:45:55;;;;;;;;;8.75;8.00;;;;;31.14;21.92;101584.56;5077526;27;45337;-74
2022/06/16 17:48:20;;;;;;;;;6.75;6.75;;;;;31.17;22.77;101598.72;5077544;28;45457;-76
2022/06/16 17:50:46;;;;;;;;;10.00;8.75;;;;;31.08;22.70;101595.81;5062978;27;46058;-74
2022/06/16 18:01:40;;;;;;;;;10.25;10.25;;;;;30.82;23.38;101593.06;5077083;28;45321;-74
2022/06/16 18:04:06;;;;;;;;;8.25;8.25;;;;;30.70;23.01;101585.81;5076534;27;46212;-76
2022/06/16 18:06:35;;;;;;;;;8.75;8.75;;;;;30.76;23.32;101598.91;5075444;28;45536;-75
2022/06/16 18:09:00;;;;;;;;;8.25;8.25;;;;;30.66;22.83;101582.47;5065719;27;45282;-75
2022/06/16 18:11:26;;;;;;;;;7.25;7.25;;;;;30.57;23.04;101573.16;5076549;28;45238;-76
2022/06/16 18:13:55;;;;;;;;;8.00;8.00;;;;;30.34;23.07;101542.28;5079783;27;46309;-74